sensor_id;sensor_type;location;lat;lon;timestamp;P1;durP1;ratioP1;P2;durP2;ratioP2
35056;SDS011;21241;51.828;19.574;2023-02-26T00:01:37;5.60;;;5.00;;
35056;SDS011;21241;51.828;19.574;2023-02-26T00:04:05;5.90;;;5.40;;
35056;SDS011;21241;51.828;19.574;2023-02-26T00:06:36;5.70;;;5.20;;
35056;SDS011;21241;51.828;19.574;2023-02-26T00:09:05;6.20;;;5.30;;
35056;SDS011;21241;51.828;19.574;2023-02-26T00:11:33;6.30;;;5.70;;
35056;SDS011;21241;51.828;19.574;2023-02-26T00:14:01;6.40;;;5.70;;
35056;SDS011;21241;51.828;19.574;2023-02-26T00:16:30;6.30;;;5.40;;
35056;SDS011;21241;51.828;19.574;2023-02-26T00:19:00;7.40;;;6.70;;
35056;SDS011;21241;51.828;19.574;2023-02-26T00:21:31;7.80;;;7.10;;
35056;SDS011;21241;51.828;19.574;2023-02-26T00:23:59;6.90;;;6.20;;
35056;SDS011;21241;51.828;19.574;2023-02-26T00:26:29;7.10;;;6.40;;
35056;SDS011;21241;51.828;19.574;2023-02-26T00:28:58;7.30;;;5.60;;
35056;SDS011;21241;51.828;19.574;2023-02-26T00:31:27;6.80;;;5.40;;
35056;SDS011;21241;51.828;19.574;2023-02-26T00:33:55;6.80;;;5.40;;
35056;SDS011;21241;51.828;19.574;2023-02-26T00:39:08;6.10;;;5.50;;
35056;SDS011;21241;51.828;19.574;2023-02-26T00:41:41;6.10;;;5.50;;
35056;SDS011;21241;51.828;19.574;2023-02-26T00:44:09;6.70;;;5.90;;
35056;SDS011;21241;51.828;19.574;2023-02-26T00:46:40;8.60;;;7.50;;
35056;SDS011;21241;51.828;19.574;2023-02-26T00:52:04;6.90;;;6.20;;
35056;SDS011;21241;51.828;19.574;2023-02-26T00:54:32;7.10;;;6.30;;
35056;SDS011;21241;51.828;19.574;2023-02-26T00:57:01;7.50;;;6.50;;
35056;SDS011;21241;51.828;19.574;2023-02-26T00:59:32;6.60;;;6.00;;
35056;SDS011;21241;51.828;19.574;2023-02-26T01:02:01;8.60;;;6.50;;
35056;SDS011;21241;51.828;19.574;2023-02-26T01:04:29;7.00;;;6.10;;
35056;SDS011;21241;51.828;19.574;2023-02-26T01:06:57;6.90;;;5.70;;
35056;SDS011;21241;51.828;19.574;2023-02-26T01:09:26;6.80;;;5.70;;
35056;SDS011;21241;51.828;19.574;2023-02-26T01:11:56;7.10;;;6.40;;
35056;SDS011;21241;51.828;19.574;2023-02-26T01:14:29;6.10;;;5.50;;
35056;SDS011;21241;51.828;19.574;2023-02-26T01:19:48;6.70;;;5.10;;
35056;SDS011;21241;51.828;19.574;2023-02-26T01:22:24;7.60;;;5.50;;
35056;SDS011;21241;51.828;19.574;2023-02-26T01:25:01;6.80;;;5.40;;
35056;SDS011;21241;51.828;19.574;2023-02-26T01:27:31;7.20;;;6.00;;
35056;SDS011;21241;51.828;19.574;2023-02-26T01:30:00;6.50;;;5.20;;
35056;SDS011;21241;51.828;19.574;2023-02-26T01:32:42;5.80;;;5.20;;
35056;SDS011;21241;51.828;19.574;2023-02-26T01:43:33;5.60;;;5.10;;
35056;SDS011;21241;51.828;19.574;2023-02-26T01:48:54;6.30;;;5.20;;
35056;SDS011;21241;51.828;19.574;2023-02-26T01:54:26;7.00;;;6.20;;
35056;SDS011;21241;51.828;19.574;2023-02-26T01:57:16;6.40;;;5.40;;
35056;SDS011;21241;51.828;19.574;2023-02-26T01:59:45;5.90;;;5.30;;
35056;SDS011;21241;51.828;19.574;2023-02-26T02:02:15;5.90;;;5.40;;
35056;SDS011;21241;51.828;19.574;2023-02-26T02:04:45;6.50;;;5.30;;
35056;SDS011;21241;51.828;19.574;2023-02-26T02:07:14;6.10;;;5.30;;
35056;SDS011;21241;51.828;19.574;2023-02-26T02:09:42;5.70;;;5.10;;
35056;SDS011;21241;51.828;19.574;2023-02-26T02:15:13;5.40;;;4.90;;
35056;SDS011;21241;51.828;19.574;2023-02-26T02:18:00;5.40;;;4.90;;
35056;SDS011;21241;51.828;19.574;2023-02-26T02:23:28;5.80;;;4.80;;
35056;SDS011;21241;51.828;19.574;2023-02-26T02:32:27;5.50;;;4.60;;
35056;SDS011;21241;51.828;19.574;2023-02-26T02:35:02;5.90;;;4.80;;
35056;SDS011;21241;51.828;19.574;2023-02-26T02:40:36;5.40;;;4.10;;
35056;SDS011;21241;51.828;19.574;2023-02-26T02:43:12;5.60;;;4.40;;
35056;SDS011;21241;51.828;19.574;2023-02-26T02:45:46;4.90;;;4.40;;
35056;SDS011;21241;51.828;19.574;2023-02-26T02:50:57;6.10;;;4.70;;
35056;SDS011;21241;51.828;19.574;2023-02-26T02:53:41;5.50;;;4.50;;
35056;SDS011;21241;51.828;19.574;2023-02-26T02:56:28;5.20;;;4.20;;
35056;SDS011;21241;51.828;19.574;2023-02-26T02:59:14;4.50;;;4.10;;
35056;SDS011;21241;51.828;19.574;2023-02-26T03:01:44;4.70;;;4.20;;
35056;SDS011;21241;51.828;19.574;2023-02-26T03:04:13;4.30;;;3.90;;
35056;SDS011;21241;51.828;19.574;2023-02-26T03:06:42;5.40;;;3.80;;
35056;SDS011;21241;51.828;19.574;2023-02-26T03:09:13;4.70;;;4.10;;
35056;SDS011;21241;51.828;19.574;2023-02-26T03:11:41;5.40;;;3.80;;
35056;SDS011;21241;51.828;19.574;2023-02-26T03:14:10;4.20;;;3.80;;
35056;SDS011;21241;51.828;19.574;2023-02-26T03:16:52;5.40;;;4.30;;
35056;SDS011;21241;51.828;19.574;2023-02-26T03:22:16;4.10;;;3.70;;
35056;SDS011;21241;51.828;19.574;2023-02-26T03:25:06;4.20;;;3.90;;
35056;SDS011;21241;51.828;19.574;2023-02-26T03:30:44;4.40;;;4.00;;
35056;SDS011;21241;51.828;19.574;2023-02-26T03:33:17;4.80;;;4.00;;
35056;SDS011;21241;51.828;19.574;2023-02-26T03:35:52;3.80;;;3.50;;
35056;SDS011;21241;51.828;19.574;2023-02-26T03:38:24;4.30;;;3.80;;
35056;SDS011;21241;51.828;19.574;2023-02-26T03:41:01;4.80;;;4.20;;
35056;SDS011;21241;51.828;19.574;2023-02-26T03:43:45;4.30;;;3.90;;
35056;SDS011;21241;51.828;19.574;2023-02-26T03:46:17;5.10;;;3.80;;
35056;SDS011;21241;51.828;19.574;2023-02-26T03:48:49;4.70;;;4.00;;
35056;SDS011;21241;51.828;19.574;2023-02-26T03:51:18;4.60;;;4.20;;
35056;SDS011;21241;51.828;19.574;2023-02-26T03:54:27;4.30;;;3.90;;
35056;SDS011;21241;51.828;19.574;2023-02-26T03:57:16;4.40;;;4.10;;
35056;SDS011;21241;51.828;19.574;2023-02-26T03:59:59;4.20;;;3.80;;
35056;SDS011;21241;51.828;19.574;2023-02-26T04:03:00;4.30;;;3.80;;
35056;SDS011;21241;51.828;19.574;2023-02-26T04:05:33;4.00;;;3.60;;
35056;SDS011;21241;51.828;19.574;2023-02-26T04:08:02;4.30;;;3.80;;
35056;SDS011;21241;51.828;19.574;2023-02-26T04:10:47;5.70;;;3.80;;
35056;SDS011;21241;51.828;19.574;2023-02-26T04:13:19;4.00;;;3.70;;
35056;SDS011;21241;51.828;19.574;2023-02-26T04:15:48;4.20;;;3.60;;
35056;SDS011;21241;51.828;19.574;2023-02-26T04:18:16;3.70;;;3.40;;
35056;SDS011;21241;51.828;19.574;2023-02-26T04:20:44;3.70;;;3.40;;
35056;SDS011;21241;51.828;19.574;2023-02-26T04:23:12;4.10;;;3.70;;
35056;SDS011;21241;51.828;19.574;2023-02-26T04:25:39;4.10;;;3.50;;
35056;SDS011;21241;51.828;19.574;2023-02-26T04:28:07;3.80;;;3.40;;
35056;SDS011;21241;51.828;19.574;2023-02-26T04:30:35;4.50;;;4.10;;
35056;SDS011;21241;51.828;19.574;2023-02-26T04:33:03;4.40;;;4.00;;
35056;SDS011;21241;51.828;19.574;2023-02-26T04:35:31;4.50;;;4.10;;
35056;SDS011;21241;51.828;19.574;2023-02-26T04:38:00;4.30;;;3.90;;
35056;SDS011;21241;51.828;19.574;2023-02-26T04:40:27;3.80;;;3.50;;
35056;SDS011;21241;51.828;19.574;2023-02-26T04:42:55;3.90;;;3.60;;
35056;SDS011;21241;51.828;19.574;2023-02-26T04:45:25;4.30;;;3.90;;
35056;SDS011;21241;51.828;19.574;2023-02-26T04:47:53;3.60;;;3.30;;
35056;SDS011;21241;51.828;19.574;2023-02-26T04:50:21;4.30;;;3.90;;
35056;SDS011;21241;51.828;19.574;2023-02-26T04:52:50;4.60;;;4.20;;
35056;SDS011;21241;51.828;19.574;2023-02-26T04:55:18;3.80;;;3.50;;
35056;SDS011;21241;51.828;19.574;2023-02-26T04:57:46;4.70;;;4.20;;
35056;SDS011;21241;51.828;19.574;2023-02-26T05:00:14;4.00;;;3.70;;
35056;SDS011;21241;51.828;19.574;2023-02-26T05:02:43;4.30;;;3.90;;
35056;SDS011;21241;51.828;19.574;2023-02-26T05:05:10;5.40;;;4.10;;
35056;SDS011;21241;51.828;19.574;2023-02-26T05:07:38;4.30;;;3.90;;
35056;SDS011;21241;51.828;19.574;2023-02-26T05:10:07;4.20;;;3.80;;
35056;SDS011;21241;51.828;19.574;2023-02-26T05:12:36;4.00;;;3.60;;
35056;SDS011;21241;51.828;19.574;2023-02-26T05:15:04;4.10;;;3.80;;
35056;SDS011;21241;51.828;19.574;2023-02-26T05:17:32;4.80;;;4.40;;
35056;SDS011;21241;51.828;19.574;2023-02-26T05:20:00;5.20;;;4.70;;
35056;SDS011;21241;51.828;19.574;2023-02-26T05:22:28;4.80;;;4.40;;
35056;SDS011;21241;51.828;19.574;2023-02-26T05:24:56;4.30;;;4.00;;
35056;SDS011;21241;51.828;19.574;2023-02-26T05:27:23;4.90;;;4.50;;
35056;SDS011;21241;51.828;19.574;2023-02-26T05:29:51;5.20;;;4.70;;
35056;SDS011;21241;51.828;19.574;2023-02-26T05:32:19;4.20;;;3.90;;
35056;SDS011;21241;51.828;19.574;2023-02-26T05:34:47;4.00;;;3.70;;
35056;SDS011;21241;51.828;19.574;2023-02-26T05:37:14;4.90;;;4.40;;
35056;SDS011;21241;51.828;19.574;2023-02-26T05:39:42;4.50;;;4.10;;
35056;SDS011;21241;51.828;19.574;2023-02-26T05:42:10;4.80;;;4.40;;
35056;SDS011;21241;51.828;19.574;2023-02-26T05:44:38;5.20;;;4.70;;
35056;SDS011;21241;51.828;19.574;2023-02-26T05:47:05;5.60;;;5.20;;
35056;SDS011;21241;51.828;19.574;2023-02-26T05:49:33;4.50;;;4.20;;
35056;SDS011;21241;51.828;19.574;2023-02-26T05:52:00;5.40;;;4.90;;
35056;SDS011;21241;51.828;19.574;2023-02-26T05:54:28;4.50;;;4.10;;
35056;SDS011;21241;51.828;19.574;2023-02-26T05:56:56;4.70;;;4.20;;
35056;SDS011;21241;51.828;19.574;2023-02-26T05:59:24;5.50;;;4.40;;
35056;SDS011;21241;51.828;19.574;2023-02-26T06:01:52;4.20;;;3.80;;
35056;SDS011;21241;51.828;19.574;2023-02-26T06:04:19;4.50;;;4.10;;
35056;SDS011;21241;51.828;19.574;2023-02-26T06:06:47;4.40;;;3.80;;
35056;SDS011;21241;51.828;19.574;2023-02-26T06:09:15;4.40;;;4.00;;
35056;SDS011;21241;51.828;19.574;2023-02-26T06:11:42;4.50;;;4.10;;
35056;SDS011;21241;51.828;19.574;2023-02-26T06:14:10;4.20;;;3.80;;
35056;SDS011;21241;51.828;19.574;2023-02-26T06:16:38;3.90;;;3.60;;
35056;SDS011;21241;51.828;19.574;2023-02-26T06:19:05;4.40;;;4.00;;
35056;SDS011;21241;51.828;19.574;2023-02-26T06:21:33;5.10;;;4.50;;
35056;SDS011;21241;51.828;19.574;2023-02-26T06:24:01;4.50;;;4.20;;
35056;SDS011;21241;51.828;19.574;2023-02-26T06:26:28;4.70;;;4.30;;
35056;SDS011;21241;51.828;19.574;2023-02-26T06:28:56;5.00;;;4.50;;
35056;SDS011;21241;51.828;19.574;2023-02-26T06:31:24;4.70;;;4.10;;
35056;SDS011;21241;51.828;19.574;2023-02-26T06:33:52;6.10;;;5.50;;
35056;SDS011;21241;51.828;19.574;2023-02-26T06:36:19;5.40;;;4.90;;
35056;SDS011;21241;51.828;19.574;2023-02-26T06:38:47;5.20;;;4.70;;
35056;SDS011;21241;51.828;19.574;2023-02-26T06:41:15;5.10;;;4.60;;
35056;SDS011;21241;51.828;19.574;2023-02-26T06:43:42;4.70;;;4.30;;
35056;SDS011;21241;51.828;19.574;2023-02-26T06:46:10;4.60;;;4.20;;
35056;SDS011;21241;51.828;19.574;2023-02-26T06:48:38;5.00;;;4.50;;
35056;SDS011;21241;51.828;19.574;2023-02-26T06:51:06;4.20;;;3.80;;
35056;SDS011;21241;51.828;19.574;2023-02-26T06:53:34;5.10;;;4.70;;
35056;SDS011;21241;51.828;19.574;2023-02-26T06:56:01;4.80;;;4.00;;
35056;SDS011;21241;51.828;19.574;2023-02-26T06:58:30;5.10;;;4.70;;
35056;SDS011;21241;51.828;19.574;2023-02-26T07:00:57;4.10;;;3.70;;
35056;SDS011;21241;51.828;19.574;2023-02-26T07:03:25;4.20;;;3.90;;
35056;SDS011;21241;51.828;19.574;2023-02-26T07:05:53;4.40;;;4.00;;
35056;SDS011;21241;51.828;19.574;2023-02-26T07:08:20;4.20;;;3.80;;
35056;SDS011;21241;51.828;19.574;2023-02-26T07:10:48;4.90;;;4.40;;
35056;SDS011;21241;51.828;19.574;2023-02-26T07:13:16;3.60;;;3.30;;
35056;SDS011;21241;51.828;19.574;2023-02-26T07:15:43;4.00;;;3.60;;
35056;SDS011;21241;51.828;19.574;2023-02-26T07:18:12;4.30;;;3.90;;
35056;SDS011;21241;51.828;19.574;2023-02-26T07:20:40;3.70;;;3.40;;
35056;SDS011;21241;51.828;19.574;2023-02-26T07:23:09;3.40;;;3.10;;
35056;SDS011;21241;51.828;19.574;2023-02-26T07:25:38;4.40;;;4.00;;
35056;SDS011;21241;51.828;19.574;2023-02-26T07:28:05;4.00;;;3.60;;
35056;SDS011;21241;51.828;19.574;2023-02-26T07:30:33;4.70;;;4.30;;
35056;SDS011;21241;51.828;19.574;2023-02-26T07:33:01;5.20;;;4.70;;
35056;SDS011;21241;51.828;19.574;2023-02-26T07:35:29;5.50;;;5.00;;
35056;SDS011;21241;51.828;19.574;2023-02-26T07:37:56;4.90;;;4.40;;
35056;SDS011;21241;51.828;19.574;2023-02-26T07:40:24;3.70;;;3.40;;
35056;SDS011;21241;51.828;19.574;2023-02-26T07:42:52;4.00;;;3.60;;
35056;SDS011;21241;51.828;19.574;2023-02-26T07:45:19;3.80;;;3.50;;
35056;SDS011;21241;51.828;19.574;2023-02-26T07:47:50;4.00;;;3.50;;
35056;SDS011;21241;51.828;19.574;2023-02-26T07:50:18;3.50;;;3.20;;
35056;SDS011;21241;51.828;19.574;2023-02-26T07:52:47;4.20;;;3.80;;
35056;SDS011;21241;51.828;19.574;2023-02-26T07:55:15;4.00;;;3.60;;
35056;SDS011;21241;51.828;19.574;2023-02-26T07:57:42;3.90;;;3.60;;
35056;SDS011;21241;51.828;19.574;2023-02-26T08:00:11;4.90;;;4.50;;
35056;SDS011;21241;51.828;19.574;2023-02-26T08:02:39;3.90;;;3.60;;
35056;SDS011;21241;51.828;19.574;2023-02-26T08:05:07;4.40;;;3.90;;
35056;SDS011;21241;51.828;19.574;2023-02-26T08:07:35;3.80;;;3.40;;
35056;SDS011;21241;51.828;19.574;2023-02-26T08:10:04;3.60;;;3.40;;
35056;SDS011;21241;51.828;19.574;2023-02-26T08:12:32;3.50;;;3.20;;
35056;SDS011;21241;51.828;19.574;2023-02-26T08:15:00;3.40;;;3.20;;
35056;SDS011;21241;51.828;19.574;2023-02-26T08:17:27;3.70;;;3.40;;
35056;SDS011;21241;51.828;19.574;2023-02-26T08:19:55;3.60;;;3.30;;
35056;SDS011;21241;51.828;19.574;2023-02-26T08:22:23;3.10;;;2.90;;
35056;SDS011;21241;51.828;19.574;2023-02-26T08:24:50;3.70;;;3.40;;
35056;SDS011;21241;51.828;19.574;2023-02-26T08:27:18;3.80;;;3.50;;
35056;SDS011;21241;51.828;19.574;2023-02-26T08:29:46;3.90;;;3.60;;
35056;SDS011;21241;51.828;19.574;2023-02-26T08:32:17;3.80;;;3.50;;
35056;SDS011;21241;51.828;19.574;2023-02-26T08:34:46;5.30;;;4.80;;
35056;SDS011;21241;51.828;19.574;2023-02-26T08:37:14;5.70;;;5.10;;
35056;SDS011;21241;51.828;19.574;2023-02-26T08:39:41;5.60;;;5.00;;
35056;SDS011;21241;51.828;19.574;2023-02-26T08:42:09;5.10;;;4.70;;
35056;SDS011;21241;51.828;19.574;2023-02-26T08:44:38;5.00;;;4.60;;
35056;SDS011;21241;51.828;19.574;2023-02-26T08:47:06;5.60;;;5.10;;
35056;SDS011;21241;51.828;19.574;2023-02-26T08:49:34;5.80;;;5.20;;
35056;SDS011;21241;51.828;19.574;2023-02-26T08:52:02;6.20;;;5.60;;
35056;SDS011;21241;51.828;19.574;2023-02-26T08:54:30;5.50;;;5.00;;
35056;SDS011;21241;51.828;19.574;2023-02-26T08:56:58;5.60;;;5.10;;
35056;SDS011;21241;51.828;19.574;2023-02-26T08:59:26;5.20;;;4.80;;
35056;SDS011;21241;51.828;19.574;2023-02-26T09:01:53;5.10;;;4.60;;
35056;SDS011;21241;51.828;19.574;2023-02-26T09:04:21;6.00;;;5.10;;
35056;SDS011;21241;51.828;19.574;2023-02-26T09:06:49;6.10;;;5.60;;
35056;SDS011;21241;51.828;19.574;2023-02-26T09:09:17;6.00;;;5.50;;
35056;SDS011;21241;51.828;19.574;2023-02-26T09:11:45;6.20;;;5.60;;
35056;SDS011;21241;51.828;19.574;2023-02-26T09:14:13;5.10;;;4.70;;
35056;SDS011;21241;51.828;19.574;2023-02-26T09:16:41;5.40;;;4.90;;
35056;SDS011;21241;51.828;19.574;2023-02-26T09:19:09;5.80;;;5.30;;
35056;SDS011;21241;51.828;19.574;2023-02-26T09:21:37;5.80;;;5.30;;
35056;SDS011;21241;51.828;19.574;2023-02-26T09:24:05;6.40;;;5.80;;
35056;SDS011;21241;51.828;19.574;2023-02-26T09:26:33;5.90;;;5.30;;
35056;SDS011;21241;51.828;19.574;2023-02-26T09:29:01;4.50;;;4.10;;
35056;SDS011;21241;51.828;19.574;2023-02-26T09:31:29;4.20;;;3.90;;
35056;SDS011;21241;51.828;19.574;2023-02-26T09:33:56;4.20;;;3.90;;
35056;SDS011;21241;51.828;19.574;2023-02-26T09:36:24;4.50;;;4.20;;
35056;SDS011;21241;51.828;19.574;2023-02-26T09:38:52;5.40;;;4.70;;
35056;SDS011;21241;51.828;19.574;2023-02-26T09:41:30;7.60;;;6.80;;
35056;SDS011;21241;51.828;19.574;2023-02-26T09:52:12;3.90;;;3.60;;
35056;SDS011;21241;51.828;19.574;2023-02-26T09:54:59;4.00;;;3.70;;
35056;SDS011;21241;51.828;19.574;2023-02-26T09:57:32;3.90;;;3.60;;
35056;SDS011;21241;51.828;19.574;2023-02-26T10:00:03;2.70;;;2.50;;
35056;SDS011;21241;51.828;19.574;2023-02-26T10:08:16;3.40;;;3.00;;
35056;SDS011;21241;51.828;19.574;2023-02-26T10:13:46;3.60;;;3.30;;
35056;SDS011;21241;51.828;19.574;2023-02-26T10:16:28;3.00;;;2.70;;
35056;SDS011;21241;51.828;19.574;2023-02-26T10:19:03;3.90;;;3.60;;
35056;SDS011;21241;51.828;19.574;2023-02-26T10:21:39;4.00;;;3.60;;
35056;SDS011;21241;51.828;19.574;2023-02-26T10:24:17;3.30;;;3.10;;
35056;SDS011;21241;51.828;19.574;2023-02-26T10:26:56;3.30;;;3.10;;
35056;SDS011;21241;51.828;19.574;2023-02-26T10:29:35;3.90;;;3.60;;
35056;SDS011;21241;51.828;19.574;2023-02-26T10:32:16;3.80;;;3.50;;
35056;SDS011;21241;51.828;19.574;2023-02-26T10:34:57;3.80;;;3.50;;
35056;SDS011;21241;51.828;19.574;2023-02-26T10:42:48;3.60;;;3.30;;
35056;SDS011;21241;51.828;19.574;2023-02-26T10:48:07;3.40;;;3.10;;
35056;SDS011;21241;51.828;19.574;2023-02-26T10:50:56;3.40;;;3.10;;
35056;SDS011;21241;51.828;19.574;2023-02-26T10:53:26;4.00;;;3.70;;
35056;SDS011;21241;51.828;19.574;2023-02-26T10:56:13;4.00;;;3.60;;
35056;SDS011;21241;51.828;19.574;2023-02-26T10:58:43;3.70;;;3.40;;
35056;SDS011;21241;51.828;19.574;2023-02-26T11:01:19;4.40;;;4.00;;
35056;SDS011;21241;51.828;19.574;2023-02-26T11:03:50;3.50;;;3.20;;
35056;SDS011;21241;51.828;19.574;2023-02-26T11:06:23;2.80;;;2.60;;
35056;SDS011;21241;51.828;19.574;2023-02-26T11:08:54;2.70;;;2.50;;
35056;SDS011;21241;51.828;19.574;2023-02-26T11:11:36;3.60;;;3.30;;
35056;SDS011;21241;51.828;19.574;2023-02-26T11:14:13;2.90;;;2.70;;
35056;SDS011;21241;51.828;19.574;2023-02-26T11:16:45;3.40;;;3.10;;
35056;SDS011;21241;51.828;19.574;2023-02-26T11:19:15;3.20;;;3.00;;
35056;SDS011;21241;51.828;19.574;2023-02-26T11:21:44;3.10;;;2.90;;
35056;SDS011;21241;51.828;19.574;2023-02-26T11:24:20;3.00;;;2.70;;
35056;SDS011;21241;51.828;19.574;2023-02-26T11:26:55;4.60;;;4.10;;
35056;SDS011;21241;51.828;19.574;2023-02-26T11:29:24;4.10;;;3.70;;
35056;SDS011;21241;51.828;19.574;2023-02-26T11:31:53;3.80;;;3.50;;
35056;SDS011;21241;51.828;19.574;2023-02-26T11:34:25;3.20;;;2.90;;
35056;SDS011;21241;51.828;19.574;2023-02-26T11:36:54;3.00;;;2.80;;
35056;SDS011;21241;51.828;19.574;2023-02-26T11:39:24;3.50;;;3.20;;
35056;SDS011;21241;51.828;19.574;2023-02-26T11:41:57;4.20;;;3.80;;
35056;SDS011;21241;51.828;19.574;2023-02-26T11:44:36;6.00;;;4.20;;
35056;SDS011;21241;51.828;19.574;2023-02-26T11:47:15;4.80;;;4.40;;
35056;SDS011;21241;51.828;19.574;2023-02-26T11:49:45;4.50;;;4.10;;
35056;SDS011;21241;51.828;19.574;2023-02-26T11:52:28;4.50;;;4.10;;
35056;SDS011;21241;51.828;19.574;2023-02-26T11:55:00;4.80;;;4.40;;
35056;SDS011;21241;51.828;19.574;2023-02-26T11:57:31;4.70;;;4.40;;
35056;SDS011;21241;51.828;19.574;2023-02-26T12:00:00;4.50;;;4.10;;
35056;SDS011;21241;51.828;19.574;2023-02-26T12:02:32;4.40;;;4.10;;
35056;SDS011;21241;51.828;19.574;2023-02-26T12:05:02;4.10;;;3.70;;
35056;SDS011;21241;51.828;19.574;2023-02-26T12:07:32;4.20;;;3.60;;
35056;SDS011;21241;51.828;19.574;2023-02-26T12:10:00;3.90;;;3.50;;
35056;SDS011;21241;51.828;19.574;2023-02-26T12:12:37;3.00;;;2.80;;
35056;SDS011;21241;51.828;19.574;2023-02-26T12:15:16;3.70;;;3.40;;
35056;SDS011;21241;51.828;19.574;2023-02-26T12:18:08;3.80;;;3.30;;
35056;SDS011;21241;51.828;19.574;2023-02-26T12:21:35;3.70;;;2.80;;
35056;SDS011;21241;51.828;19.574;2023-02-26T12:29:13;4.00;;;3.20;;
35056;SDS011;21241;51.828;19.574;2023-02-26T12:31:54;4.40;;;3.50;;
35056;SDS011;21241;51.828;19.574;2023-02-26T12:34:49;3.50;;;3.20;;
35056;SDS011;21241;51.828;19.574;2023-02-26T12:45:46;3.60;;;3.30;;
35056;SDS011;21241;51.828;19.574;2023-02-26T13:03:00;2.90;;;2.70;;
35056;SDS011;21241;51.828;19.574;2023-02-26T13:08:42;2.80;;;2.40;;
35056;SDS011;21241;51.828;19.574;2023-02-26T13:11:30;2.40;;;2.20;;
35056;SDS011;21241;51.828;19.574;2023-02-26T13:14:17;2.90;;;2.70;;
35056;SDS011;21241;51.828;19.574;2023-02-26T13:20:10;3.40;;;2.70;;
35056;SDS011;21241;51.828;19.574;2023-02-26T13:22:44;3.90;;;3.30;;
35056;SDS011;21241;51.828;19.574;2023-02-26T13:25:28;4.20;;;3.30;;
35056;SDS011;21241;51.828;19.574;2023-02-26T13:28:02;3.90;;;3.10;;
35056;SDS011;21241;51.828;19.574;2023-02-26T13:30:35;3.70;;;3.40;;
35056;SDS011;21241;51.828;19.574;2023-02-26T13:33:08;4.00;;;3.30;;
35056;SDS011;21241;51.828;19.574;2023-02-26T13:35:44;4.00;;;3.60;;
35056;SDS011;21241;51.828;19.574;2023-02-26T13:38:21;3.50;;;3.20;;
35056;SDS011;21241;51.828;19.574;2023-02-26T13:43:34;4.30;;;3.90;;
35056;SDS011;21241;51.828;19.574;2023-02-26T13:46:21;4.90;;;4.40;;
35056;SDS011;21241;51.828;19.574;2023-02-26T13:48:59;5.40;;;4.40;;
35056;SDS011;21241;51.828;19.574;2023-02-26T13:51:47;5.90;;;5.30;;
35056;SDS011;21241;51.828;19.574;2023-02-26T14:02:45;4.70;;;3.50;;
35056;SDS011;21241;51.828;19.574;2023-02-26T14:10:53;4.40;;;3.30;;
35056;SDS011;21241;51.828;19.574;2023-02-26T14:13:29;3.80;;;2.30;;
35056;SDS011;21241;51.828;19.574;2023-02-26T14:18:50;2.30;;;2.10;;
35056;SDS011;21241;51.828;19.574;2023-02-26T14:24:12;3.80;;;3.30;;
35056;SDS011;21241;51.828;19.574;2023-02-26T14:29:41;3.80;;;3.10;;
35056;SDS011;21241;51.828;19.574;2023-02-26T14:32:14;3.60;;;3.00;;
35056;SDS011;21241;51.828;19.574;2023-02-26T14:34:50;3.20;;;2.90;;
35056;SDS011;21241;51.828;19.574;2023-02-26T14:37:22;3.50;;;2.80;;
35056;SDS011;21241;51.828;19.574;2023-02-26T14:39:56;4.40;;;3.20;;
35056;SDS011;21241;51.828;19.574;2023-02-26T14:42:40;3.20;;;2.90;;
35056;SDS011;21241;51.828;19.574;2023-02-26T14:45:17;4.40;;;3.30;;
35056;SDS011;21241;51.828;19.574;2023-02-26T14:47:51;5.00;;;3.40;;
35056;SDS011;21241;51.828;19.574;2023-02-26T14:50:20;3.50;;;2.80;;
35056;SDS011;21241;51.828;19.574;2023-02-26T14:52:51;5.50;;;4.10;;
35056;SDS011;21241;51.828;19.574;2023-02-26T15:09:41;4.60;;;3.40;;
35056;SDS011;21241;51.828;19.574;2023-02-26T15:26:12;4.70;;;2.80;;
35056;SDS011;21241;51.828;19.574;2023-02-26T15:28:44;5.10;;;3.60;;
35056;SDS011;21241;51.828;19.574;2023-02-26T15:31:12;4.90;;;4.10;;
35056;SDS011;21241;51.828;19.574;2023-02-26T15:33:40;5.50;;;4.20;;
35056;SDS011;21241;51.828;19.574;2023-02-26T15:36:12;6.50;;;4.40;;
35056;SDS011;21241;51.828;19.574;2023-02-26T15:38:42;5.40;;;3.90;;
35056;SDS011;21241;51.828;19.574;2023-02-26T15:41:12;4.10;;;3.10;;
35056;SDS011;21241;51.828;19.574;2023-02-26T15:43:43;5.20;;;3.50;;
35056;SDS011;21241;51.828;19.574;2023-02-26T15:46:15;6.50;;;3.80;;
35056;SDS011;21241;51.828;19.574;2023-02-26T15:48:43;4.30;;;2.90;;
35056;SDS011;21241;51.828;19.574;2023-02-26T15:51:12;6.00;;;3.60;;
35056;SDS011;21241;51.828;19.574;2023-02-26T15:53:50;5.20;;;3.70;;
35056;SDS011;21241;51.828;19.574;2023-02-26T15:56:21;4.50;;;3.80;;
35056;SDS011;21241;51.828;19.574;2023-02-26T15:58:57;5.60;;;3.80;;
35056;SDS011;21241;51.828;19.574;2023-02-26T16:01:27;6.80;;;4.30;;
35056;SDS011;21241;51.828;19.574;2023-02-26T16:03:57;5.00;;;3.70;;
35056;SDS011;21241;51.828;19.574;2023-02-26T16:06:29;5.80;;;3.60;;
35056;SDS011;21241;51.828;19.574;2023-02-26T16:09:04;5.30;;;3.80;;
35056;SDS011;21241;51.828;19.574;2023-02-26T16:11:37;6.30;;;3.70;;
35056;SDS011;21241;51.828;19.574;2023-02-26T16:14:06;6.60;;;3.70;;
35056;SDS011;21241;51.828;19.574;2023-02-26T16:16:42;5.60;;;3.20;;
35056;SDS011;21241;51.828;19.574;2023-02-26T16:25:14;4.60;;;4.00;;
35056;SDS011;21241;51.828;19.574;2023-02-26T16:27:57;4.80;;;4.30;;
35056;SDS011;21241;51.828;19.574;2023-02-26T16:30:32;6.20;;;4.60;;
35056;SDS011;21241;51.828;19.574;2023-02-26T16:33:04;7.10;;;4.70;;
35056;SDS011;21241;51.828;19.574;2023-02-26T16:35:43;5.30;;;4.70;;
35056;SDS011;21241;51.828;19.574;2023-02-26T16:38:18;6.70;;;6.00;;
35056;SDS011;21241;51.828;19.574;2023-02-26T16:40:47;7.40;;;4.80;;
35056;SDS011;21241;51.828;19.574;2023-02-26T16:46:40;4.80;;;4.30;;
35056;SDS011;21241;51.828;19.574;2023-02-26T16:49:18;5.30;;;4.00;;
35056;SDS011;21241;51.828;19.574;2023-02-26T16:51:48;4.70;;;3.70;;
35056;SDS011;21241;51.828;19.574;2023-02-26T16:54:18;4.80;;;3.40;;
35056;SDS011;21241;51.828;19.574;2023-02-26T16:56:56;4.90;;;3.70;;
35056;SDS011;21241;51.828;19.574;2023-02-26T16:59:27;4.80;;;3.40;;
35056;SDS011;21241;51.828;19.574;2023-02-26T17:01:58;4.70;;;3.60;;
35056;SDS011;21241;51.828;19.574;2023-02-26T17:04:28;5.20;;;3.60;;
35056;SDS011;21241;51.828;19.574;2023-02-26T17:07:00;4.50;;;3.50;;
35056;SDS011;21241;51.828;19.574;2023-02-26T17:12:28;4.70;;;3.90;;
35056;SDS011;21241;51.828;19.574;2023-02-26T17:15:11;6.40;;;4.10;;
35056;SDS011;21241;51.828;19.574;2023-02-26T17:17:50;5.60;;;3.60;;
35056;SDS011;21241;51.828;19.574;2023-02-26T17:20:17;5.70;;;4.10;;
35056;SDS011;21241;51.828;19.574;2023-02-26T17:22:45;4.60;;;3.40;;
35056;SDS011;21241;51.828;19.574;2023-02-26T17:25:14;4.20;;;3.80;;
35056;SDS011;21241;51.828;19.574;2023-02-26T17:27:47;4.30;;;3.10;;
35056;SDS011;21241;51.828;19.574;2023-02-26T17:30:15;4.70;;;2.90;;
35056;SDS011;21241;51.828;19.574;2023-02-26T17:32:46;3.00;;;2.40;;
35056;SDS011;21241;51.828;19.574;2023-02-26T17:35:14;3.80;;;2.70;;
35056;SDS011;21241;51.828;19.574;2023-02-26T17:37:44;3.60;;;2.50;;
35056;SDS011;21241;51.828;19.574;2023-02-26T17:40:16;2.80;;;2.20;;
35056;SDS011;21241;51.828;19.574;2023-02-26T17:42:43;3.50;;;2.20;;
35056;SDS011;21241;51.828;19.574;2023-02-26T17:45:11;3.50;;;2.00;;
35056;SDS011;21241;51.828;19.574;2023-02-26T17:47:41;3.50;;;2.20;;
35056;SDS011;21241;51.828;19.574;2023-02-26T17:50:23;3.40;;;2.40;;
35056;SDS011;21241;51.828;19.574;2023-02-26T17:52:56;4.20;;;3.00;;